sensor_id;sensor_type;location;lat;lon;timestamp;P1;durP1;ratioP1;P2;durP2;ratioP2
5688;SDS011;2869;50.432;8.680;2023-08-31T00:00:41;13.47;;;6.17;;
5688;SDS011;2869;50.432;8.680;2023-08-31T00:03:09;8.53;;;5.70;;
5688;SDS011;2869;50.432;8.680;2023-08-31T00:05:36;8.50;;;5.13;;
5688;SDS011;2869;50.432;8.680;2023-08-31T00:08:05;6.10;;;5.50;;
5688;SDS011;2869;50.432;8.680;2023-08-31T00:10:32;11.27;;;5.90;;
5688;SDS011;2869;50.432;8.680;2023-08-31T00:13:01;8.97;;;5.70;;
5688;SDS011;2869;50.432;8.680;2023-08-31T00:15:28;9.13;;;5.80;;
5688;SDS011;2869;50.432;8.680;2023-08-31T00:17:57;17.30;;;6.10;;
5688;SDS011;2869;50.432;8.680;2023-08-31T00:20:24;11.90;;;6.03;;
5688;SDS011;2869;50.432;8.680;2023-08-31T00:22:51;10.63;;;6.13;;
5688;SDS011;2869;50.432;8.680;2023-08-31T00:25:18;12.17;;;6.67;;
5688;SDS011;2869;50.432;8.680;2023-08-31T00:27:45;7.77;;;5.57;;
5688;SDS011;2869;50.432;8.680;2023-08-31T00:30:14;11.70;;;5.40;;
5688;SDS011;2869;50.432;8.680;2023-08-31T00:32:41;9.37;;;5.70;;
5688;SDS011;2869;50.432;8.680;2023-08-31T00:35:08;9.30;;;6.37;;
5688;SDS011;2869;50.432;8.680;2023-08-31T00:37:35;14.10;;;6.30;;
5688;SDS011;2869;50.432;8.680;2023-08-31T00:40:01;11.87;;;6.20;;
5688;SDS011;2869;50.432;8.680;2023-08-31T00:42:29;8.40;;;5.43;;
5688;SDS011;2869;50.432;8.680;2023-08-31T00:44:56;13.20;;;5.70;;
5688;SDS011;2869;50.432;8.680;2023-08-31T00:47:24;14.10;;;6.20;;
5688;SDS011;2869;50.432;8.680;2023-08-31T00:49:51;8.53;;;5.93;;
5688;SDS011;2869;50.432;8.680;2023-08-31T00:52:18;12.63;;;5.63;;
5688;SDS011;2869;50.432;8.680;2023-08-31T00:54:45;9.80;;;6.13;;
5688;SDS011;2869;50.432;8.680;2023-08-31T00:57:12;8.87;;;5.80;;
5688;SDS011;2869;50.432;8.680;2023-08-31T00:59:39;10.17;;;6.33;;
5688;SDS011;2869;50.432;8.680;2023-08-31T01:02:07;15.70;;;5.93;;
5688;SDS011;2869;50.432;8.680;2023-08-31T01:04:44;9.30;;;5.70;;
5688;SDS011;2869;50.432;8.680;2023-08-31T01:07:21;10.10;;;6.20;;
5688;SDS011;2869;50.432;8.680;2023-08-31T01:09:56;10.10;;;5.00;;
5688;SDS011;2869;50.432;8.680;2023-08-31T01:12:29;9.00;;;5.73;;
5688;SDS011;2869;50.432;8.680;2023-08-31T01:15:03;7.17;;;5.40;;
5688;SDS011;2869;50.432;8.680;2023-08-31T01:17:33;12.90;;;5.80;;
5688;SDS011;2869;50.432;8.680;2023-08-31T01:20:06;9.70;;;5.90;;
5688;SDS011;2869;50.432;8.680;2023-08-31T01:22:38;10.17;;;6.17;;
5688;SDS011;2869;50.432;8.680;2023-08-31T01:25:08;13.20;;;6.40;;
5688;SDS011;2869;50.432;8.680;2023-08-31T01:27:35;9.17;;;5.30;;
5688;SDS011;2869;50.432;8.680;2023-08-31T01:30:03;9.20;;;5.87;;
5688;SDS011;2869;50.432;8.680;2023-08-31T01:32:31;12.30;;;6.77;;
5688;SDS011;2869;50.432;8.680;2023-08-31T01:34:58;10.23;;;5.53;;
5688;SDS011;2869;50.432;8.680;2023-08-31T01:37:27;10.73;;;5.90;;
5688;SDS011;2869;50.432;8.680;2023-08-31T01:39:58;6.87;;;5.20;;
5688;SDS011;2869;50.432;8.680;2023-08-31T01:42:32;8.80;;;5.60;;
5688;SDS011;2869;50.432;8.680;2023-08-31T01:44:59;14.37;;;6.00;;
5688;SDS011;2869;50.432;8.680;2023-08-31T01:47:28;9.70;;;6.27;;
5688;SDS011;2869;50.432;8.680;2023-08-31T01:49:54;15.00;;;6.33;;
5688;SDS011;2869;50.432;8.680;2023-08-31T01:52:21;10.40;;;6.00;;
5688;SDS011;2869;50.432;8.680;2023-08-31T01:54:48;9.20;;;6.10;;
5688;SDS011;2869;50.432;8.680;2023-08-31T01:57:15;9.53;;;6.30;;
5688;SDS011;2869;50.432;8.680;2023-08-31T01:59:43;9.30;;;6.43;;
5688;SDS011;2869;50.432;8.680;2023-08-31T02:02:10;8.47;;;6.07;;
5688;SDS011;2869;50.432;8.680;2023-08-31T02:04:36;11.80;;;6.53;;
5688;SDS011;2869;50.432;8.680;2023-08-31T02:07:03;13.23;;;6.53;;
5688;SDS011;2869;50.432;8.680;2023-08-31T02:09:29;9.83;;;6.00;;
5688;SDS011;2869;50.432;8.680;2023-08-31T02:11:56;12.20;;;6.00;;
5688;SDS011;2869;50.432;8.680;2023-08-31T02:14:23;10.00;;;6.00;;
5688;SDS011;2869;50.432;8.680;2023-08-31T02:16:51;10.43;;;6.03;;
5688;SDS011;2869;50.432;8.680;2023-08-31T02:19:18;11.33;;;5.97;;
5688;SDS011;2869;50.432;8.680;2023-08-31T02:21:45;9.30;;;5.67;;
5688;SDS011;2869;50.432;8.680;2023-08-31T02:24:11;8.93;;;5.53;;
5688;SDS011;2869;50.432;8.680;2023-08-31T02:26:38;7.83;;;5.90;;
5688;SDS011;2869;50.432;8.680;2023-08-31T02:29:05;14.80;;;5.37;;
5688;SDS011;2869;50.432;8.680;2023-08-31T02:31:31;5.23;;;4.80;;
5688;SDS011;2869;50.432;8.680;2023-08-31T02:33:59;6.73;;;4.90;;
5688;SDS011;2869;50.432;8.680;2023-08-31T02:36:26;11.40;;;6.13;;
5688;SDS011;2869;50.432;8.680;2023-08-31T02:38:52;7.03;;;5.73;;
5688;SDS011;2869;50.432;8.680;2023-08-31T02:41:19;8.20;;;5.83;;
5688;SDS011;2869;50.432;8.680;2023-08-31T02:43:46;10.23;;;6.13;;
5688;SDS011;2869;50.432;8.680;2023-08-31T02:46:12;18.27;;;6.47;;
5688;SDS011;2869;50.432;8.680;2023-08-31T02:48:39;11.03;;;6.37;;
5688;SDS011;2869;50.432;8.680;2023-08-31T02:51:07;7.67;;;5.90;;
5688;SDS011;2869;50.432;8.680;2023-08-31T02:53:34;11.03;;;6.10;;
5688;SDS011;2869;50.432;8.680;2023-08-31T02:56:00;9.03;;;6.53;;
5688;SDS011;2869;50.432;8.680;2023-08-31T02:58:27;10.47;;;5.80;;
5688;SDS011;2869;50.432;8.680;2023-08-31T03:00:54;12.50;;;7.03;;
5688;SDS011;2869;50.432;8.680;2023-08-31T03:03:21;8.93;;;5.90;;
5688;SDS011;2869;50.432;8.680;2023-08-31T03:05:47;10.50;;;5.97;;
5688;SDS011;2869;50.432;8.680;2023-08-31T03:08:15;6.57;;;5.70;;
5688;SDS011;2869;50.432;8.680;2023-08-31T03:10:42;10.20;;;5.73;;
5688;SDS011;2869;50.432;8.680;2023-08-31T03:13:09;14.00;;;6.40;;
5688;SDS011;2869;50.432;8.680;2023-08-31T03:15:35;8.70;;;5.70;;
5688;SDS011;2869;50.432;8.680;2023-08-31T03:18:02;9.73;;;6.17;;
5688;SDS011;2869;50.432;8.680;2023-08-31T03:20:29;9.40;;;6.30;;
5688;SDS011;2869;50.432;8.680;2023-08-31T03:22:56;10.40;;;5.97;;
5688;SDS011;2869;50.432;8.680;2023-08-31T03:25:24;11.30;;;6.60;;
5688;SDS011;2869;50.432;8.680;2023-08-31T03:27:50;9.93;;;6.60;;
5688;SDS011;2869;50.432;8.680;2023-08-31T03:30:17;11.43;;;7.17;;
5688;SDS011;2869;50.432;8.680;2023-08-31T03:32:44;10.53;;;7.17;;
5688;SDS011;2869;50.432;8.680;2023-08-31T03:35:10;9.43;;;6.90;;
5688;SDS011;2869;50.432;8.680;2023-08-31T03:37:37;12.90;;;6.80;;
5688;SDS011;2869;50.432;8.680;2023-08-31T03:40:05;12.90;;;7.27;;
5688;SDS011;2869;50.432;8.680;2023-08-31T03:42:34;11.30;;;6.63;;
5688;SDS011;2869;50.432;8.680;2023-08-31T03:45:00;9.70;;;6.60;;
5688;SDS011;2869;50.432;8.680;2023-08-31T03:47:28;9.07;;;7.03;;
5688;SDS011;2869;50.432;8.680;2023-08-31T03:49:55;7.93;;;6.37;;
5688;SDS011;2869;50.432;8.680;2023-08-31T03:52:21;11.50;;;6.80;;
5688;SDS011;2869;50.432;8.680;2023-08-31T03:54:49;12.07;;;7.70;;
5688;SDS011;2869;50.432;8.680;2023-08-31T03:57:17;14.67;;;6.77;;
5688;SDS011;2869;50.432;8.680;2023-08-31T03:59:45;13.33;;;7.20;;
5688;SDS011;2869;50.432;8.680;2023-08-31T04:02:11;12.23;;;6.50;;
5688;SDS011;2869;50.432;8.680;2023-08-31T04:04:38;11.80;;;6.37;;
5688;SDS011;2869;50.432;8.680;2023-08-31T04:07:05;9.13;;;6.10;;
5688;SDS011;2869;50.432;8.680;2023-08-31T04:09:32;12.53;;;7.30;;
5688;SDS011;2869;50.432;8.680;2023-08-31T04:11:59;6.90;;;5.60;;
5688;SDS011;2869;50.432;8.680;2023-08-31T04:14:25;13.10;;;6.20;;
5688;SDS011;2869;50.432;8.680;2023-08-31T04:16:53;10.13;;;6.30;;
5688;SDS011;2869;50.432;8.680;2023-08-31T04:19:20;7.63;;;6.10;;
5688;SDS011;2869;50.432;8.680;2023-08-31T04:21:47;7.87;;;6.07;;
5688;SDS011;2869;50.432;8.680;2023-08-31T04:24:13;7.30;;;6.10;;
5688;SDS011;2869;50.432;8.680;2023-08-31T04:26:40;12.13;;;7.20;;
5688;SDS011;2869;50.432;8.680;2023-08-31T04:29:07;8.53;;;6.07;;
5688;SDS011;2869;50.432;8.680;2023-08-31T04:31:33;8.73;;;6.30;;
5688;SDS011;2869;50.432;8.680;2023-08-31T04:34:01;15.33;;;6.40;;
5688;SDS011;2869;50.432;8.680;2023-08-31T04:36:28;9.30;;;6.60;;
5688;SDS011;2869;50.432;8.680;2023-08-31T04:38:55;10.13;;;6.67;;
5688;SDS011;2869;50.432;8.680;2023-08-31T04:41:21;12.80;;;7.00;;
5688;SDS011;2869;50.432;8.680;2023-08-31T04:43:48;14.77;;;6.53;;
5688;SDS011;2869;50.432;8.680;2023-08-31T04:46:15;7.87;;;6.40;;
5688;SDS011;2869;50.432;8.680;2023-08-31T04:48:42;8.90;;;6.50;;
5688;SDS011;2869;50.432;8.680;2023-08-31T04:51:11;10.90;;;7.63;;
5688;SDS011;2869;50.432;8.680;2023-08-31T04:53:54;10.33;;;7.30;;
5688;SDS011;2869;50.432;8.680;2023-08-31T04:56:20;10.67;;;6.13;;
5688;SDS011;2869;50.432;8.680;2023-08-31T04:58:47;11.50;;;7.07;;
5688;SDS011;2869;50.432;8.680;2023-08-31T05:01:13;11.27;;;6.93;;
5688;SDS011;2869;50.432;8.680;2023-08-31T05:03:41;12.67;;;7.20;;
5688;SDS011;2869;50.432;8.680;2023-08-31T05:06:07;16.43;;;6.93;;
5688;SDS011;2869;50.432;8.680;2023-08-31T05:08:35;8.97;;;7.37;;
5688;SDS011;2869;50.432;8.680;2023-08-31T05:11:02;9.57;;;7.77;;
5688;SDS011;2869;50.432;8.680;2023-08-31T05:13:29;18.03;;;8.23;;
5688;SDS011;2869;50.432;8.680;2023-08-31T05:15:55;9.27;;;6.70;;
5688;SDS011;2869;50.432;8.680;2023-08-31T05:18:22;8.50;;;7.17;;
5688;SDS011;2869;50.432;8.680;2023-08-31T05:20:48;13.00;;;8.13;;
5688;SDS011;2869;50.432;8.680;2023-08-31T05:23:15;10.73;;;7.23;;
5688;SDS011;2869;50.432;8.680;2023-08-31T05:25:43;14.30;;;7.20;;
5688;SDS011;2869;50.432;8.680;2023-08-31T05:28:10;9.87;;;7.27;;
5688;SDS011;2869;50.432;8.680;2023-08-31T05:30:45;12.77;;;7.03;;
5688;SDS011;2869;50.432;8.680;2023-08-31T05:36:36;11.63;;;5.80;;
5688;SDS011;2869;50.432;8.680;2023-08-31T05:39:02;9.77;;;6.07;;
5688;SDS011;2869;50.432;8.680;2023-08-31T05:41:31;8.10;;;5.23;;
5688;SDS011;2869;50.432;8.680;2023-08-31T05:43:57;5.83;;;5.07;;
5688;SDS011;2869;50.432;8.680;2023-08-31T05:46:24;8.07;;;5.90;;
5688;SDS011;2869;50.432;8.680;2023-08-31T05:48:50;6.90;;;4.80;;
5688;SDS011;2869;50.432;8.680;2023-08-31T05:51:17;14.73;;;5.57;;
5688;SDS011;2869;50.432;8.680;2023-08-31T05:53:44;7.53;;;4.80;;
5688;SDS011;2869;50.432;8.680;2023-08-31T05:56:10;8.87;;;5.30;;
5688;SDS011;2869;50.432;8.680;2023-08-31T05:58:38;7.77;;;4.47;;
5688;SDS011;2869;50.432;8.680;2023-08-31T06:01:05;5.70;;;4.33;;
5688;SDS011;2869;50.432;8.680;2023-08-31T06:03:32;6.50;;;3.87;;
5688;SDS011;2869;50.432;8.680;2023-08-31T06:05:59;5.63;;;4.30;;
5688;SDS011;2869;50.432;8.680;2023-08-31T06:08:26;6.37;;;4.63;;
5688;SDS011;2869;50.432;8.680;2023-08-31T06:10:54;4.37;;;3.97;;
5688;SDS011;2869;50.432;8.680;2023-08-31T06:13:21;5.03;;;4.00;;
5688;SDS011;2869;50.432;8.680;2023-08-31T06:15:49;6.50;;;4.40;;
5688;SDS011;2869;50.432;8.680;2023-08-31T06:18:15;8.33;;;4.67;;
5688;SDS011;2869;50.432;8.680;2023-08-31T06:20:42;5.83;;;4.43;;
5688;SDS011;2869;50.432;8.680;2023-08-31T06:23:09;6.20;;;3.77;;
5688;SDS011;2869;50.432;8.680;2023-08-31T06:25:36;9.00;;;4.53;;
5688;SDS011;2869;50.432;8.680;2023-08-31T06:28:03;6.93;;;4.07;;
5688;SDS011;2869;50.432;8.680;2023-08-31T06:30:33;4.80;;;4.37;;
5688;SDS011;2869;50.432;8.680;2023-08-31T06:33:01;4.07;;;3.60;;
5688;SDS011;2869;50.432;8.680;2023-08-31T06:35:28;5.20;;;3.97;;
5688;SDS011;2869;50.432;8.680;2023-08-31T06:37:54;4.40;;;3.43;;
5688;SDS011;2869;50.432;8.680;2023-08-31T06:40:21;5.00;;;4.00;;
5688;SDS011;2869;50.432;8.680;2023-08-31T06:42:48;3.73;;;3.30;;
5688;SDS011;2869;50.432;8.680;2023-08-31T06:45:14;6.73;;;3.60;;
5688;SDS011;2869;50.432;8.680;2023-08-31T06:47:41;4.47;;;3.57;;
5688;SDS011;2869;50.432;8.680;2023-08-31T06:50:09;6.33;;;3.73;;
5688;SDS011;2869;50.432;8.680;2023-08-31T06:52:36;9.37;;;4.50;;
5688;SDS011;2869;50.432;8.680;2023-08-31T06:55:03;9.53;;;4.07;;
5688;SDS011;2869;50.432;8.680;2023-08-31T06:57:31;7.27;;;3.93;;
5688;SDS011;2869;50.432;8.680;2023-08-31T06:59:57;4.10;;;3.30;;
5688;SDS011;2869;50.432;8.680;2023-08-31T07:02:25;6.37;;;3.83;;
5688;SDS011;2869;50.432;8.680;2023-08-31T07:04:52;7.10;;;3.40;;
5688;SDS011;2869;50.432;8.680;2023-08-31T07:07:20;4.20;;;3.47;;
5688;SDS011;2869;50.432;8.680;2023-08-31T07:09:47;7.00;;;3.80;;
5688;SDS011;2869;50.432;8.680;2023-08-31T07:12:14;6.50;;;3.30;;
5688;SDS011;2869;50.432;8.680;2023-08-31T07:14:41;9.20;;;3.17;;
5688;SDS011;2869;50.432;8.680;2023-08-31T07:17:07;6.53;;;3.53;;
5688;SDS011;2869;50.432;8.680;2023-08-31T07:19:35;5.87;;;3.23;;
5688;SDS011;2869;50.432;8.680;2023-08-31T07:22:02;3.90;;;2.80;;
5688;SDS011;2869;50.432;8.680;2023-08-31T07:24:32;3.03;;;2.83;;
5688;SDS011;2869;50.432;8.680;2023-08-31T07:27:00;3.60;;;3.10;;
5688;SDS011;2869;50.432;8.680;2023-08-31T07:29:27;5.13;;;2.93;;
5688;SDS011;2869;50.432;8.680;2023-08-31T07:31:54;4.50;;;3.30;;
5688;SDS011;2869;50.432;8.680;2023-08-31T07:34:20;5.80;;;3.43;;
5688;SDS011;2869;50.432;8.680;2023-08-31T07:36:47;6.63;;;2.93;;
5688;SDS011;2869;50.432;8.680;2023-08-31T07:39:14;5.40;;;3.10;;
5688;SDS011;2869;50.432;8.680;2023-08-31T07:41:44;8.43;;;2.60;;
5688;SDS011;2869;50.432;8.680;2023-08-31T07:44:10;5.07;;;2.60;;
5688;SDS011;2869;50.432;8.680;2023-08-31T07:46:37;4.03;;;2.80;;
5688;SDS011;2869;50.432;8.680;2023-08-31T07:49:04;4.50;;;2.30;;
5688;SDS011;2869;50.432;8.680;2023-08-31T07:51:31;4.47;;;2.70;;
5688;SDS011;2869;50.432;8.680;2023-08-31T07:53:59;4.43;;;2.47;;
5688;SDS011;2869;50.432;8.680;2023-08-31T07:56:28;5.10;;;2.50;;
5688;SDS011;2869;50.432;8.680;2023-08-31T07:58:56;9.07;;;2.90;;
5688;SDS011;2869;50.432;8.680;2023-08-31T08:01:23;6.30;;;2.50;;
5688;SDS011;2869;50.432;8.680;2023-08-31T08:03:50;2.43;;;2.23;;
5688;SDS011;2869;50.432;8.680;2023-08-31T08:06:16;4.83;;;2.40;;
5688;SDS011;2869;50.432;8.680;2023-08-31T08:08:43;2.57;;;2.30;;
5688;SDS011;2869;50.432;8.680;2023-08-31T08:11:10;6.80;;;2.70;;
5688;SDS011;2869;50.432;8.680;2023-08-31T08:13:36;2.70;;;2.30;;
5688;SDS011;2869;50.432;8.680;2023-08-31T08:16:04;4.03;;;2.10;;
5688;SDS011;2869;50.432;8.680;2023-08-31T08:18:33;3.30;;;2.30;;
5688;SDS011;2869;50.432;8.680;2023-08-31T08:20:59;4.60;;;1.83;;
5688;SDS011;2869;50.432;8.680;2023-08-31T08:23:26;4.07;;;2.13;;
5688;SDS011;2869;50.432;8.680;2023-08-31T08:25:52;4.23;;;2.50;;
5688;SDS011;2869;50.432;8.680;2023-08-31T08:28:19;5.23;;;2.37;;
5688;SDS011;2869;50.432;8.680;2023-08-31T08:30:46;2.60;;;2.30;;
5688;SDS011;2869;50.432;8.680;2023-08-31T08:33:14;4.95;;;2.13;;
5688;SDS011;2869;50.432;8.680;2023-08-31T08:35:40;3.60;;;2.60;;
5688;SDS011;2869;50.432;8.680;2023-08-31T08:38:07;6.88;;;2.10;;
5688;SDS011;2869;50.432;8.680;2023-08-31T08:40:34;4.17;;;2.40;;
5688;SDS011;2869;50.432;8.680;2023-08-31T08:43:01;3.60;;;2.30;;
5688;SDS011;2869;50.432;8.680;2023-08-31T08:45:34;2.93;;;2.40;;
5688;SDS011;2869;50.432;8.680;2023-08-31T08:48:04;3.93;;;2.80;;
5688;SDS011;2869;50.432;8.680;2023-08-31T08:50:34;6.77;;;2.67;;
5688;SDS011;2869;50.432;8.680;2023-08-31T08:53:02;5.90;;;2.63;;
5688;SDS011;2869;50.432;8.680;2023-08-31T08:55:29;2.60;;;2.40;;
5688;SDS011;2869;50.432;8.680;2023-08-31T08:57:57;4.20;;;2.57;;
5688;SDS011;2869;50.432;8.680;2023-08-31T09:00:25;4.77;;;2.77;;
5688;SDS011;2869;50.432;8.680;2023-08-31T09:02:52;3.77;;;2.10;;
5688;SDS011;2869;50.432;8.680;2023-08-31T09:05:19;4.80;;;2.00;;
5688;SDS011;2869;50.432;8.680;2023-08-31T09:08:03;7.93;;;2.53;;
5688;SDS011;2869;50.432;8.680;2023-08-31T09:10:34;2.87;;;2.53;;
5688;SDS011;2869;50.432;8.680;2023-08-31T09:13:05;5.33;;;2.60;;
5688;SDS011;2869;50.432;8.680;2023-08-31T09:15:36;4.73;;;2.43;;
5688;SDS011;2869;50.432;8.680;2023-08-31T09:18:07;5.63;;;2.87;;
5688;SDS011;2869;50.432;8.680;2023-08-31T09:20:42;4.00;;;2.20;;
5688;SDS011;2869;50.432;8.680;2023-08-31T09:23:11;5.03;;;2.40;;
5688;SDS011;2869;50.432;8.680;2023-08-31T09:25:40;3.57;;;2.40;;
5688;SDS011;2869;50.432;8.680;2023-08-31T09:28:08;3.57;;;2.57;;
5688;SDS011;2869;50.432;8.680;2023-08-31T09:30:35;2.47;;;2.27;;
5688;SDS011;2869;50.432;8.680;2023-08-31T09:33:03;3.17;;;2.30;;
5688;SDS011;2869;50.432;8.680;2023-08-31T09:35:30;3.20;;;2.57;;
5688;SDS011;2869;50.432;8.680;2023-08-31T09:37:57;3.87;;;2.30;;
5688;SDS011;2869;50.432;8.680;2023-08-31T09:40:25;9.90;;;2.37;;
5688;SDS011;2869;50.432;8.680;2023-08-31T09:42:52;5.97;;;2.73;;
5688;SDS011;2869;50.432;8.680;2023-08-31T09:45:23;3.50;;;2.40;;
5688;SDS011;2869;50.432;8.680;2023-08-31T09:47:52;5.63;;;2.37;;
5688;SDS011;2869;50.432;8.680;2023-08-31T09:50:18;5.20;;;2.67;;
5688;SDS011;2869;50.432;8.680;2023-08-31T09:52:46;3.17;;;2.40;;
5688;SDS011;2869;50.432;8.680;2023-08-31T09:55:14;4.30;;;2.70;;
5688;SDS011;2869;50.432;8.680;2023-08-31T09:57:44;6.40;;;2.53;;
5688;SDS011;2869;50.432;8.680;2023-08-31T10:00:11;5.10;;;2.40;;
5688;SDS011;2869;50.432;8.680;2023-08-31T10:02:40;8.47;;;2.73;;
5688;SDS011;2869;50.432;8.680;2023-08-31T10:05:08;4.57;;;2.30;;
5688;SDS011;2869;50.432;8.680;2023-08-31T10:07:35;5.40;;;2.20;;
5688;SDS011;2869;50.432;8.680;2023-08-31T10:10:03;5.67;;;2.20;;
5688;SDS011;2869;50.432;8.680;2023-08-31T10:12:31;4.33;;;2.37;;
5688;SDS011;2869;50.432;8.680;2023-08-31T10:15:00;2.40;;;2.03;;
5688;SDS011;2869;50.432;8.680;2023-08-31T10:17:28;5.03;;;2.90;;
5688;SDS011;2869;50.432;8.680;2023-08-31T10:19:55;2.77;;;1.77;;
5688;SDS011;2869;50.432;8.680;2023-08-31T10:22:22;4.50;;;2.27;;
5688;SDS011;2869;50.432;8.680;2023-08-31T10:24:58;4.40;;;2.13;;
5688;SDS011;2869;50.432;8.680;2023-08-31T10:27:28;4.77;;;2.10;;
5688;SDS011;2869;50.432;8.680;2023-08-31T10:30:13;4.13;;;2.20;;
5688;SDS011;2869;50.432;8.680;2023-08-31T10:35:48;3.40;;;2.00;;
5688;SDS011;2869;50.432;8.680;2023-08-31T10:38:15;4.33;;;2.13;;
5688;SDS011;2869;50.432;8.680;2023-08-31T10:40:49;5.93;;;2.40;;
5688;SDS011;2869;50.432;8.680;2023-08-31T10:43:26;3.60;;;2.30;;
5688;SDS011;2869;50.432;8.680;2023-08-31T10:45:54;6.43;;;2.67;;
5688;SDS011;2869;50.432;8.680;2023-08-31T10:48:24;5.40;;;2.83;;
5688;SDS011;2869;50.432;8.680;2023-08-31T10:50:51;7.57;;;2.20;;
5688;SDS011;2869;50.432;8.680;2023-08-31T10:53:18;5.27;;;2.07;;
5688;SDS011;2869;50.432;8.680;2023-08-31T10:55:51;5.60;;;2.47;;
5688;SDS011;2869;50.432;8.680;2023-08-31T10:58:18;3.27;;;2.23;;
5688;SDS011;2869;50.432;8.680;2023-08-31T11:00:50;8.07;;;2.27;;
5688;SDS011;2869;50.432;8.680;2023-08-31T11:03:19;6.53;;;2.20;;
5688;SDS011;2869;50.432;8.680;2023-08-31T11:05:55;3.60;;;2.10;;
5688;SDS011;2869;50.432;8.680;2023-08-31T11:08:23;7.63;;;2.37;;
5688;SDS011;2869;50.432;8.680;2023-08-31T11:10:51;6.00;;;1.93;;
5688;SDS011;2869;50.432;8.680;2023-08-31T11:13:18;6.40;;;2.30;;
5688;SDS011;2869;50.432;8.680;2023-08-31T11:15:46;2.30;;;2.03;;
5688;SDS011;2869;50.432;8.680;2023-08-31T11:18:13;4.63;;;2.07;;
5688;SDS011;2869;50.432;8.680;2023-08-31T11:20:44;5.40;;;2.17;;
5688;SDS011;2869;50.432;8.680;2023-08-31T11:23:16;3.50;;;1.90;;
5688;SDS011;2869;50.432;8.680;2023-08-31T11:25:47;8.73;;;2.30;;
5688;SDS011;2869;50.432;8.680;2023-08-31T11:28:14;2.30;;;1.67;;
5688;SDS011;2869;50.432;8.680;2023-08-31T11:30:41;2.73;;;1.80;;
5688;SDS011;2869;50.432;8.680;2023-08-31T11:33:09;6.20;;;2.13;;
5688;SDS011;2869;50.432;8.680;2023-08-31T11:35:38;3.33;;;1.90;;
5688;SDS011;2869;50.432;8.680;2023-08-31T11:38:09;2.03;;;1.60;;
5688;SDS011;2869;50.432;8.680;2023-08-31T11:40:36;5.53;;;2.00;;
5688;SDS011;2869;50.432;8.680;2023-08-31T11:43:03;8.10;;;1.87;;
5688;SDS011;2869;50.432;8.680;2023-08-31T11:45:31;3.17;;;1.70;;
5688;SDS011;2869;50.432;8.680;2023-08-31T11:47:58;3.50;;;1.90;;
5688;SDS011;2869;50.432;8.680;2023-08-31T11:50:25;4.20;;;2.20;;
5688;SDS011;2869;50.432;8.680;2023-08-31T11:52:53;3.00;;;2.10;;
5688;SDS011;2869;50.432;8.680;2023-08-31T11:55:22;2.40;;;1.77;;
5688;SDS011;2869;50.432;8.680;2023-08-31T11:57:49;2.50;;;1.67;;
5688;SDS011;2869;50.432;8.680;2023-08-31T12:00:16;4.00;;;2.03;;
5688;SDS011;2869;50.432;8.680;2023-08-31T12:02:44;2.33;;;2.13;;
5688;SDS011;2869;50.432;8.680;2023-08-31T12:05:14;1.70;;;1.40;;
5688;SDS011;2869;50.432;8.680;2023-08-31T12:07:40;3.67;;;2.10;;
5688;SDS011;2869;50.432;8.680;2023-08-31T12:10:07;3.30;;;1.67;;
5688;SDS011;2869;50.432;8.680;2023-08-31T12:12:36;1.80;;;1.60;;
5688;SDS011;2869;50.432;8.680;2023-08-31T12:15:03;4.40;;;1.90;;
5688;SDS011;2869;50.432;8.680;2023-08-31T12:17:31;2.40;;;1.63;;
5688;SDS011;2869;50.432;8.680;2023-08-31T12:20:02;4.13;;;2.00;;
5688;SDS011;2869;50.432;8.680;2023-08-31T12:22:31;3.47;;;2.07;;
5688;SDS011;2869;50.432;8.680;2023-08-31T12:24:58;3.70;;;1.97;;
5688;SDS011;2869;50.432;8.680;2023-08-31T12:27:24;5.13;;;1.70;;
5688;SDS011;2869;50.432;8.680;2023-08-31T12:29:54;2.10;;;1.90;;
5688;SDS011;2869;50.432;8.680;2023-08-31T12:32:21;4.80;;;1.90;;
5688;SDS011;2869;50.432;8.680;2023-08-31T12:34:47;7.63;;;2.57;;
5688;SDS011;2869;50.432;8.680;2023-08-31T12:37:14;3.20;;;2.00;;
5688;SDS011;2869;50.432;8.680;2023-08-31T12:39:41;2.17;;;1.80;;
5688;SDS011;2869;50.432;8.680;2023-08-31T12:42:10;2.93;;;1.80;;
5688;SDS011;2869;50.432;8.680;2023-08-31T12:44:37;3.70;;;2.30;;
5688;SDS011;2869;50.432;8.680;2023-08-31T12:47:06;4.20;;;2.17;;
5688;SDS011;2869;50.432;8.680;2023-08-31T12:49:32;2.80;;;2.13;;
5688;SDS011;2869;50.432;8.680;2023-08-31T12:51:59;3.63;;;2.00;;
5688;SDS011;2869;50.432;8.680;2023-08-31T12:54:26;3.10;;;2.10;;
5688;SDS011;2869;50.432;8.680;2023-08-31T12:56:52;2.17;;;1.63;;
5688;SDS011;2869;50.432;8.680;2023-08-31T12:59:19;2.50;;;1.77;;
5688;SDS011;2869;50.432;8.680;2023-08-31T13:01:46;4.20;;;2.40;;
5688;SDS011;2869;50.432;8.680;2023-08-31T13:04:14;5.73;;;2.03;;
5688;SDS011;2869;50.432;8.680;2023-08-31T13:06:40;3.30;;;1.80;;
5688;SDS011;2869;50.432;8.680;2023-08-31T13:09:07;5.10;;;2.00;;
5688;SDS011;2869;50.432;8.680;2023-08-31T13:11:34;4.50;;;1.90;;
5688;SDS011;2869;50.432;8.680;2023-08-31T13:14:00;4.90;;;2.20;;
5688;SDS011;2869;50.432;8.680;2023-08-31T13:16:27;3.50;;;2.03;;
5688;SDS011;2869;50.432;8.680;2023-08-31T13:18:54;10.80;;;2.03;;
5688;SDS011;2869;50.432;8.680;2023-08-31T13:21:22;3.10;;;1.80;;
5688;SDS011;2869;50.432;8.680;2023-08-31T13:23:48;5.43;;;2.00;;
5688;SDS011;2869;50.432;8.680;2023-08-31T13:26:15;2.70;;;2.00;;
5688;SDS011;2869;50.432;8.680;2023-08-31T13:28:42;3.40;;;2.03;;
5688;SDS011;2869;50.432;8.680;2023-08-31T13:31:09;6.77;;;2.07;;
5688;SDS011;2869;50.432;8.680;2023-08-31T13:33:36;6.40;;;2.20;;
5688;SDS011;2869;50.432;8.680;2023-08-31T13:36:03;3.77;;;1.90;;
5688;SDS011;2869;50.432;8.680;2023-08-31T13:38:31;3.80;;;1.90;;
5688;SDS011;2869;50.432;8.680;2023-08-31T13:40:58;4.87;;;2.10;;
5688;SDS011;2869;50.432;8.680;2023-08-31T13:43:25;5.00;;;2.20;;
5688;SDS011;2869;50.432;8.680;2023-08-31T13:45:52;4.03;;;2.07;;
5688;SDS011;2869;50.432;8.680;2023-08-31T13:48:18;2.20;;;2.00;;
5688;SDS011;2869;50.432;8.680;2023-08-31T13:50:47;4.70;;;2.47;;
5688;SDS011;2869;50.432;8.680;2023-08-31T13:53:14;3.20;;;2.10;;
5688;SDS011;2869;50.432;8.680;2023-08-31T13:55:42;2.10;;;1.90;;
5688;SDS011;2869;50.432;8.680;2023-08-31T13:58:08;5.50;;;2.20;;
5688;SDS011;2869;50.432;8.680;2023-08-31T14:00:35;2.47;;;1.80;;
5688;SDS011;2869;50.432;8.680;2023-08-31T14:03:03;3.13;;;2.20;;
5688;SDS011;2869;50.432;8.680;2023-08-31T14:05:32;3.03;;;2.07;;
5688;SDS011;2869;50.432;8.680;2023-08-31T14:08:00;4.20;;;1.70;;
5688;SDS011;2869;50.432;8.680;2023-08-31T14:10:29;2.93;;;1.80;;
5688;SDS011;2869;50.432;8.680;2023-08-31T14:12:58;4.80;;;2.33;;
5688;SDS011;2869;50.432;8.680;2023-08-31T14:15:24;4.00;;;2.07;;
5688;SDS011;2869;50.432;8.680;2023-08-31T14:17:51;6.23;;;2.37;;
5688;SDS011;2869;50.432;8.680;2023-08-31T14:20:18;3.90;;;2.43;;
5688;SDS011;2869;50.432;8.680;2023-08-31T14:22:45;2.60;;;2.20;;
5688;SDS011;2869;50.432;8.680;2023-08-31T14:25:11;3.03;;;2.30;;
5688;SDS011;2869;50.432;8.680;2023-08-31T14:27:38;3.23;;;2.30;;
5688;SDS011;2869;50.432;8.680;2023-08-31T14:30:07;4.90;;;2.30;;
5688;SDS011;2869;50.432;8.680;2023-08-31T14:32:34;5.47;;;2.03;;
5688;SDS011;2869;50.432;8.680;2023-08-31T14:35:00;4.67;;;2.23;;
5688;SDS011;2869;50.432;8.680;2023-08-31T14:37:29;2.87;;;2.23;;
5688;SDS011;2869;50.432;8.680;2023-08-31T14:39:55;3.23;;;1.80;;
5688;SDS011;2869;50.432;8.680;2023-08-31T14:42:22;2.33;;;1.90;;
5688;SDS011;2869;50.432;8.680;2023-08-31T14:44:49;3.50;;;2.43;;
5688;SDS011;2869;50.432;8.680;2023-08-31T14:47:16;3.77;;;1.90;;
5688;SDS011;2869;50.432;8.680;2023-08-31T14:49:43;2.63;;;1.73;;
5688;SDS011;2869;50.432;8.680;2023-08-31T14:52:10;4.10;;;2.10;;
5688;SDS011;2869;50.432;8.680;2023-08-31T14:54:36;3.47;;;2.47;;
5688;SDS011;2869;50.432;8.680;2023-08-31T14:57:03;2.70;;;2.00;;
5688;SDS011;2869;50.432;8.680;2023-08-31T14:59:31;3.73;;;2.40;;
5688;SDS011;2869;50.432;8.680;2023-08-31T15:01:57;5.47;;;2.80;;
5688;SDS011;2869;50.432;8.680;2023-08-31T15:04:28;2.40;;;2.20;;
5688;SDS011;2869;50.432;8.680;2023-08-31T15:06:54;3.23;;;2.63;;
5688;SDS011;2869;50.432;8.680;2023-08-31T15:09:21;2.73;;;1.90;;
5688;SDS011;2869;50.432;8.680;2023-08-31T15:11:48;6.43;;;2.13;;
5688;SDS011;2869;50.432;8.680;2023-08-31T15:14:15;4.07;;;2.53;;
5688;SDS011;2869;50.432;8.680;2023-08-31T15:16:41;2.43;;;2.20;;
5688;SDS011;2869;50.432;8.680;2023-08-31T15:19:08;3.40;;;2.40;;
5688;SDS011;2869;50.432;8.680;2023-08-31T15:21:36;3.00;;;2.63;;